Time;durP1;ratioP1;P1;durP2;ratioP2;P2;SDS_P1;SDS_P2;PMS_P1;PMS_P2;Temp;Humidity;BMP_temperature;BMP_pressure;BME280_temperature;BME280_humidity;BME280_pressure;Samples;Min_cycle;Max_cycle;Signal;HPM_P1;HPM_P2
2023/03/24 00:00:12;;;;;;;1.50;0.70;;;15.50;99.90;;;;;;5000727;28;20586;-79
2023/03/24 00:02:41;;;;;;;2.60;0.70;;;15.50;99.90;;;;;;4998979;28;20648;-78
2023/03/24 00:05:12;;;;;;;1.93;0.70;;;15.50;99.90;;;;;;4997044;28;21157;-80
2023/03/24 00:07:38;;;;;;;1.57;0.70;;;15.50;99.90;;;;;;4994912;28;20640;-80
2023/03/24 00:10:14;;;;;;;1.93;0.80;;;15.50;99.90;;;;;;4995810;28;20562;-79
2023/03/24 00:12:41;;;;;;;1.40;0.70;;;15.50;99.90;;;;;;4995509;28;20974;-79
2023/03/24 00:15:12;;;;;;;1.60;0.70;;;15.60;99.90;;;;;;4994104;28;20573;-74
2023/03/24 00:17:38;;;;;;;2.00;0.80;;;15.60;99.90;;;;;;4993472;28;20693;-73
2023/03/24 00:20:13;;;;;;;2.07;0.90;;;15.60;99.90;;;;;;4994731;28;20582;-73
2023/03/24 00:22:41;;;;;;;1.40;0.70;;;15.60;99.90;;;;;;4994066;28;20987;-74
2023/03/24 00:25:10;;;;;;;2.23;0.90;;;15.60;99.90;;;;;;4993405;28;20677;-73
2023/03/24 00:27:37;;;;;;;2.27;1.00;;;15.60;99.90;;;;;;4993697;28;20594;-73
2023/03/24 00:30:08;;;;;;;1.70;0.90;;;15.60;99.90;;;;;;4992866;28;20584;-73
2023/03/24 00:32:38;;;;;;;1.63;0.87;;;15.60;99.90;;;;;;4977046;28;20621;-73
2023/03/24 00:35:07;;;;;;;1.47;0.80;;;15.60;99.90;;;;;;4993004;28;20586;-73
2023/03/24 00:37:38;;;;;;;2.03;0.87;;;15.70;99.90;;;;;;4977278;28;20740;-74
2023/03/24 00:40:07;;;;;;;1.80;0.90;;;15.70;99.90;;;;;;4976876;28;20578;-73
2023/03/24 00:42:34;;;;;;;1.80;1.20;;;15.70;99.90;;;;;;4998090;28;20621;-73
2023/03/24 00:45:02;;;;;;;1.70;1.07;;;15.70;99.90;;;;;;4996468;28;21148;-74
2023/03/24 00:47:29;;;;;;;3.13;0.90;;;15.70;99.90;;;;;;4997102;28;20638;-74
2023/03/24 00:49:56;;;;;;;2.77;0.80;;;15.70;99.90;;;;;;5014185;28;20635;-74
2023/03/24 00:52:24;;;;;;;1.80;0.93;;;15.70;99.90;;;;;;5014563;28;21159;-73
2023/03/24 00:54:54;;;;;;;1.87;0.97;;;15.70;99.90;;;;;;5010426;28;20596;-73
2023/03/24 00:57:20;;;;;;;1.97;1.00;;;15.70;99.90;;;;;;4977995;28;20574;-73
2023/03/24 00:59:49;;;;;;;1.90;0.70;;;15.70;99.90;;;;;;4997511;28;21144;-72
2023/03/24 01:02:20;;;;;;;1.67;0.93;;;15.70;99.90;;;;;;5010759;28;20621;-73
2023/03/24 01:04:55;;;;;;;2.87;1.00;;;15.70;99.90;;;;;;5014024;28;20557;-73
2023/03/24 01:07:23;;;;;;;1.60;0.80;;;15.60;99.90;;;;;;4995536;28;21202;-73
2023/03/24 01:09:56;;;;;;;2.07;0.90;;;15.60;99.90;;;;;;5012277;28;21166;-72
2023/03/24 01:12:31;;;;;;;1.80;0.97;;;15.60;99.90;;;;;;5011567;28;20656;-72
2023/03/24 01:14:58;;;;;;;2.87;1.23;;;15.60;99.90;;;;;;5012398;28;20675;-73
2023/03/24 01:17:25;;;;;;;1.63;0.90;;;15.60;99.90;;;;;;5012171;28;21088;-74
2023/03/24 01:19:52;;;;;;;1.50;0.70;;;15.60;99.90;;;;;;5012111;28;20577;-73
2023/03/24 01:22:19;;;;;;;2.40;0.90;;;15.60;99.90;;;;;;4975197;28;20630;-73
2023/03/24 01:24:46;;;;;;;1.70;0.80;;;15.60;99.90;;;;;;4974404;28;20587;-73
2023/03/24 01:27:13;;;;;;;1.90;1.20;;;15.60;99.90;;;;;;4973052;28;20590;-74
2023/03/24 01:29:40;;;;;;;1.83;0.90;;;15.60;99.90;;;;;;4972625;28;20653;-72
2023/03/24 01:32:06;;;;;;;1.70;0.80;;;15.70;99.90;;;;;;4974180;28;21242;-73
2023/03/24 01:34:32;;;;;;;2.17;1.13;;;15.70;99.90;;;;;;4972638;28;20583;-72
2023/03/24 01:36:59;;;;;;;2.23;0.70;;;15.70;99.90;;;;;;4974537;28;20641;-71
2023/03/24 01:39:25;;;;;;;1.90;1.00;;;15.70;99.90;;;;;;4988717;28;20617;-72
2023/03/24 01:41:52;;;;;;;4.10;1.00;;;15.70;99.90;;;;;;4972657;28;20678;-74
2023/03/24 01:44:41;;;;;;;2.93;1.00;;;15.70;99.90;;;;;;4972261;28;20630;-73
2023/03/24 01:47:08;;;;;;;2.20;1.00;;;15.70;99.90;;;;;;4972651;28;20703;-73
2023/03/24 01:49:44;;;;;;;2.00;1.00;;;15.70;99.90;;;;;;4973186;28;20591;-73
2023/03/24 01:52:19;;;;;;;1.97;1.20;;;15.80;99.90;;;;;;4993125;28;20683;-73
2023/03/24 01:54:50;;;;;;;2.20;1.10;;;15.70;99.90;;;;;;4993086;28;20935;-73
2023/03/24 01:57:35;;;;;;;1.83;1.07;;;15.80;99.90;;;;;;4993222;28;20590;-74
2023/03/24 02:00:12;;;;;;;1.47;0.90;;;15.80;99.90;;;;;;4991760;28;20657;-73
2023/03/24 02:02:57;;;;;;;2.73;1.20;;;15.80;99.90;;;;;;4990868;28;20707;-73
2023/03/24 02:05:32;;;;;;;2.07;1.10;;;15.80;99.90;;;;;;4991875;28;20640;-73
2023/03/24 02:08:07;;;;;;;2.07;1.00;;;15.80;99.90;;;;;;4959316;28;20618;-73
2023/03/24 02:10:35;;;;;;;1.70;0.93;;;15.80;99.90;;;;;;4974810;28;21238;-73
2023/03/24 02:13:02;;;;;;;3.07;1.10;;;15.80;99.90;;;;;;4991040;28;20638;-74
2023/03/24 02:15:32;;;;;;;1.70;1.00;;;15.80;99.90;;;;;;4972058;28;20598;-73
2023/03/24 02:18:21;;;;;;;3.47;1.00;;;15.80;99.90;;;;;;5004466;28;20643;-73
2023/03/24 02:21:11;;;;;;;2.90;1.20;;;15.80;99.90;;;;;;5006104;28;20609;-73
2023/03/24 02:23:49;;;;;;;2.03;1.20;;;15.80;99.90;;;;;;4994376;28;20616;-73
2023/03/24 02:26:52;;;;;;;4.47;1.60;;;15.90;99.90;;;;;;5012125;28;20672;-73
2023/03/24 02:29:50;;;;;;;2.27;1.30;;;15.90;99.90;;;;;;4993879;28;20573;-73
2023/03/24 02:32:56;;;;;;;2.57;1.20;;;15.90;99.90;;;;;;4959600;28;20654;-73
2023/03/24 02:35:35;;;;;;;2.30;1.20;;;15.90;99.90;;;;;;4973329;28;20636;-73
2023/03/24 02:38:26;;;;;;;1.70;0.97;;;15.90;99.90;;;;;;4991538;28;20632;-73
2023/03/24 02:41:13;;;;;;;1.93;1.10;;;15.90;99.90;;;;;;4974752;28;20588;-73
2023/03/24 02:43:49;;;;;;;2.43;1.40;;;16.00;99.90;;;;;;4974154;28;20621;-73
2023/03/24 02:46:29;;;;;;;2.50;1.50;;;16.00;99.90;;;;;;4974463;28;20593;-73
2023/03/24 02:49:03;;;;;;;2.53;1.20;;;16.00;99.90;;;;;;4990662;28;20640;-74
2023/03/24 02:51:38;;;;;;;3.10;1.17;;;16.00;99.90;;;;;;4995012;28;21227;-73
2023/03/24 02:54:16;;;;;;;2.87;1.10;;;16.10;99.90;;;;;;4993908;28;20577;-74
2023/03/24 02:57:10;;;;;;;3.00;1.40;;;16.10;99.90;;;;;;5010125;28;20654;-73
2023/03/24 03:00:26;;;;;;;2.10;1.10;;;16.10;99.90;;;;;;5009579;28;20585;-73
2023/03/24 03:03:30;;;;;;;2.67;1.30;;;16.10;99.90;;;;;;5009771;28;20617;-73
2023/03/24 03:06:06;;;;;;;2.07;1.27;;;16.10;99.90;;;;;;5009823;28;20589;-73
2023/03/24 03:08:35;;;;;;;2.40;1.80;;;16.20;99.90;;;;;;4993684;28;20580;-73
2023/03/24 03:11:04;;;;;;;2.17;1.20;;;16.20;99.90;;;;;;5009461;28;21071;-73
2023/03/24 03:13:36;;;;;;;2.40;1.17;;;16.20;99.90;;;;;;4993244;28;20613;-73
2023/03/24 03:16:08;;;;;;;1.83;1.20;;;16.20;99.90;;;;;;5009541;28;21394;-73
2023/03/24 03:18:45;;;;;;;3.77;1.20;;;16.20;99.90;;;;;;4993697;28;20635;-73
2023/03/24 03:21:14;;;;;;;3.40;1.23;;;16.30;99.90;;;;;;4974074;28;21170;-73
2023/03/24 03:23:55;;;;;;;2.67;1.20;;;16.30;99.90;;;;;;5009633;28;20617;-73
2023/03/24 03:26:25;;;;;;;2.63;1.43;;;16.30;99.90;;;;;;5010398;28;20577;-73
2023/03/24 03:28:56;;;;;;;3.37;1.63;;;16.30;99.90;;;;;;5009731;28;20683;-73
2023/03/24 03:31:40;;;;;;;2.17;1.23;;;16.30;99.90;;;;;;4993470;28;20630;-73
2023/03/24 03:34:43;;;;;;;2.70;1.47;;;16.30;99.90;;;;;;5010900;28;20668;-74
2023/03/24 03:37:38;;;;;;;2.00;1.10;;;16.30;99.90;;;;;;5010028;28;20622;-73
2023/03/24 03:40:18;;;;;;;2.30;1.00;;;16.30;99.90;;;;;;5009634;28;20581;-73
2023/03/24 03:42:50;;;;;;;2.10;1.13;;;16.30;99.90;;;;;;5009665;28;20633;-73
2023/03/24 03:45:16;;;;;;;2.80;1.60;;;16.30;99.90;;;;;;5025824;28;20572;-73
2023/03/24 03:47:42;;;;;;;1.63;1.20;;;16.30;99.90;;;;;;5011103;28;20981;-74
2023/03/24 03:50:09;;;;;;;3.00;1.40;;;16.30;99.90;;;;;;5009269;28;21142;-73
2023/03/24 03:52:37;;;;;;;2.10;1.33;;;16.30;99.90;;;;;;5009691;28;20651;-73
2023/03/24 03:55:05;;;;;;;2.43;1.27;;;16.30;99.90;;;;;;5009443;28;20672;-73
2023/03/24 03:57:33;;;;;;;2.60;1.20;;;16.30;99.90;;;;;;5009385;28;20581;-73
2023/03/24 04:00:19;;;;;;;1.77;1.10;;;16.30;99.90;;;;;;4992816;28;20647;-73
2023/03/24 04:03:05;;;;;;;1.80;1.17;;;16.30;99.90;;;;;;5010109;28;20629;-73
2023/03/24 04:05:36;;;;;;;2.97;1.10;;;16.30;99.90;;;;;;5009984;28;20601;-74
2023/03/24 04:08:32;;;;;;;1.67;1.03;;;16.30;99.90;;;;;;4993372;28;20581;-74
2023/03/24 04:11:57;;;;;;;2.20;1.10;;;16.30;99.90;;;;;;4979016;28;20632;-74
2023/03/24 04:15:00;;;;;;;4.60;1.20;;;16.30;99.90;;;;;;5009666;28;21132;-73
2023/03/24 04:17:53;;;;;;;1.93;1.30;;;16.30;99.90;;;;;;5001111;28;20606;-73
2023/03/24 04:21:01;;;;;;;3.63;1.00;;;16.40;99.90;;;;;;4986613;28;20571;-74
2023/03/24 04:23:43;;;;;;;2.87;1.13;;;16.40;99.90;;;;;;4973414;28;20833;-73
2023/03/24 04:26:34;;;;;;;2.70;1.20;;;16.40;99.90;;;;;;4989514;28;20574;-73
2023/03/24 04:29:07;;;;;;;1.50;1.00;;;16.40;99.90;;;;;;4989861;28;20959;-73
2023/03/24 04:31:40;;;;;;;1.93;1.10;;;16.50;99.90;;;;;;4989254;28;20766;-73
2023/03/24 04:34:19;;;;;;;1.90;1.00;;;16.50;99.90;;;;;;4989656;28;20589;-74
2023/03/24 04:37:01;;;;;;;2.10;1.00;;;16.50;99.90;;;;;;4974069;28;20643;-74
2023/03/24 04:39:39;;;;;;;1.87;0.87;;;16.50;99.90;;;;;;4977047;28;20606;-75
2023/03/24 04:42:22;;;;;;;2.27;1.10;;;16.60;99.90;;;;;;4981243;28;20618;-74
2023/03/24 04:44:51;;;;;;;1.50;0.90;;;16.60;99.90;;;;;;4976628;28;20589;-74
2023/03/24 04:47:23;;;;;;;1.57;0.83;;;16.60;99.90;;;;;;4994242;28;20630;-72
2023/03/24 04:50:30;;;;;;;1.83;0.80;;;16.50;99.90;;;;;;4990565;28;21149;-73
2023/03/24 04:52:59;;;;;;;2.43;0.80;;;16.50;99.90;;;;;;4992979;28;20613;-73
2023/03/24 04:55:43;;;;;;;1.50;0.77;;;16.40;99.90;;;;;;4993812;28;20911;-74
2023/03/24 04:58:08;;;;;;;1.70;0.70;;;16.30;99.90;;;;;;4992812;28;20586;-73
2023/03/24 05:00:35;;;;;;;2.33;0.87;;;16.10;99.90;;;;;;4976232;28;20590;-73
2023/03/24 05:03:02;;;;;;;1.50;0.60;;;15.90;99.90;;;;;;4992946;28;21196;-73
2023/03/24 05:05:29;;;;;;;1.70;0.60;;;15.70;99.90;;;;;;4992344;28;20598;-73
2023/03/24 05:07:55;;;;;;;4.17;0.80;;;15.50;99.90;;;;;;4992874;28;20986;-74
2023/03/24 05:10:22;;;;;;;1.60;0.63;;;15.30;99.90;;;;;;4992249;28;20190;-74
2023/03/24 05:12:53;;;;;;;2.10;0.80;;;15.20;99.90;;;;;;4976004;28;21196;-73
2023/03/24 05:15:19;;;;;;;4.13;0.77;;;15.10;99.90;;;;;;4992872;28;20578;-74
2023/03/24 05:17:47;;;;;;;1.63;0.70;;;14.90;99.90;;;;;;4993171;28;20175;-75
2023/03/24 05:20:14;;;;;;;1.50;0.70;;;14.90;99.90;;;;;;4977023;28;21130;-74
2023/03/24 05:22:43;;;;;;;1.67;0.83;;;14.80;99.90;;;;;;4990235;28;21191;-74
2023/03/24 05:25:09;;;;;;;1.87;0.63;;;14.70;99.90;;;;;;4995811;28;20596;-74
2023/03/24 05:27:35;;;;;;;2.93;0.77;;;14.60;99.90;;;;;;4995287;28;20566;-74
2023/03/24 05:30:13;;;;;;;2.00;0.70;;;14.60;99.90;;;;;;5011735;28;20589;-75
2023/03/24 05:32:40;;;;;;;2.97;0.80;;;14.50;99.90;;;;;;5010940;28;20609;-75
2023/03/24 05:35:07;;;;;;;4.57;0.90;;;14.40;99.90;;;;;;5012067;28;20593;-74
2023/03/24 05:37:33;;;;;;;1.75;0.80;;;14.30;99.90;;;;;;4995224;28;20574;-74
2023/03/24 05:39:59;;;;;;;2.50;0.70;;;14.30;99.90;;;;;;5011940;28;20178;-74
2023/03/24 05:42:34;;;;;;;1.73;0.70;;;14.20;99.90;;;;;;4994055;28;20682;-74
2023/03/24 05:45:04;;;;;;;3.00;1.00;;;14.10;99.90;;;;;;4995466;28;20193;-74
2023/03/24 05:47:30;;;;;;;1.75;0.70;;;14.10;99.90;;;;;;5011477;28;20198;-74
2023/03/24 05:49:55;;;;;;;3.20;0.87;;;14.00;99.90;;;;;;4994505;28;20205;-75
2023/03/24 05:52:21;;;;;;;2.57;0.90;;;14.00;99.90;;;;;;4994424;28;21029;-74
2023/03/24 05:54:51;;;;;;;1.90;0.70;;;14.00;99.90;;;;;;4995614;28;20261;-76
2023/03/24 05:57:25;;;;;;;1.55;0.70;;;13.90;99.90;;;;;;5011636;28;20228;-74
2023/03/24 06:00:16;;;;;;;1.90;0.90;;;13.90;99.90;;;;;;5024856;28;20529;-74
2023/03/24 06:02:54;;;;;;;5.82;0.90;;;13.90;99.90;;;;;;4982382;28;20194;-74
2023/03/24 06:05:46;;;;;;;3.20;0.77;;;13.80;99.90;;;;;;4989084;28;20187;-74
2023/03/24 06:08:12;;;;;;;1.80;0.70;;;13.80;99.90;;;;;;4975646;28;20628;-74
2023/03/24 06:10:39;;;;;;;4.37;1.00;;;13.80;99.90;;;;;;4992944;28;20625;-73
2023/03/24 06:13:07;;;;;;;3.05;0.85;;;13.70;99.90;;;;;;4976502;28;20283;-74
2023/03/24 06:15:34;;;;;;;5.38;1.35;;;13.70;99.90;;;;;;4977004;28;20183;-74
2023/03/24 06:18:15;;;;;;;3.13;1.02;;;13.70;99.90;;;;;;4994180;28;20536;-73
2023/03/24 06:20:43;;;;;;;5.25;1.25;;;13.70;99.90;;;;;;4976249;28;20218;-74
2023/03/24 06:23:15;;;;;;;3.33;0.80;;;13.60;99.90;;;;;;4991162;28;20261;-75
2023/03/24 06:26:08;;;;;;;4.03;0.90;;;13.70;99.90;;;;;;4991141;28;20190;-75
2023/03/24 06:28:35;;;;;;;4.63;1.38;;;13.60;99.90;;;;;;4990983;28;20186;-75
2023/03/24 06:31:17;;;;;;;4.32;1.02;;;13.60;99.90;;;;;;4990887;28;20218;-75
2023/03/24 06:33:43;;;;;;;6.50;1.10;;;13.60;99.90;;;;;;4975665;28;20698;-75
2023/03/24 06:36:11;;;;;;;2.90;1.00;;;13.60;99.90;;;;;;4990274;28;20669;-75
2023/03/24 06:38:37;;;;;;;5.93;1.20;;;13.60;99.90;;;;;;4990887;28;20912;-76
2023/03/24 06:41:05;;;;;;;2.95;1.38;;;13.60;99.90;;;;;;4990657;28;20656;-76
2023/03/24 06:43:31;;;;;;;3.80;1.50;;;13.80;99.90;;;;;;4974679;28;20710;-76
2023/03/24 06:45:58;;;;;;;5.55;1.40;;;13.80;99.90;;;;;;4974134;28;21156;-76
2023/03/24 06:48:25;;;;;;;4.30;1.23;;;13.80;99.90;;;;;;5005881;28;20174;-76
2023/03/24 06:50:58;;;;;;;3.78;1.05;;;13.80;99.90;;;;;;4976194;28;20637;-76
2023/03/24 06:53:23;;;;;;;5.10;1.20;;;13.80;99.90;;;;;;4974229;28;20559;-75
2023/03/24 06:55:50;;;;;;;4.60;2.00;;;13.80;99.90;;;;;;4990702;28;20686;-75
2023/03/24 06:58:17;;;;;;;7.60;2.17;;;13.80;99.90;;;;;;4990207;28;20574;-75
2023/03/24 07:01:02;;;;;;;4.35;1.20;;;13.80;99.90;;;;;;4991646;28;20213;-76
2023/03/24 07:04:24;;;;;;;7.20;2.37;;;13.90;99.90;;;;;;4971155;28;20182;-75
2023/03/24 07:06:55;;;;;;;3.83;1.67;;;13.90;99.90;;;;;;4976604;28;20622;-75
2023/03/24 07:09:21;;;;;;;5.20;1.30;;;13.80;99.90;;;;;;4996862;28;21186;-75
2023/03/24 07:11:47;;;;;;;5.23;1.27;;;13.80;99.90;;;;;;4993968;28;20633;-76
2023/03/24 07:14:14;;;;;;;4.40;1.20;;;13.90;99.90;;;;;;4991694;28;20187;-76
2023/03/24 07:16:43;;;;;;;4.80;1.27;;;13.90;99.90;;;;;;4995390;28;21157;-75
2023/03/24 07:19:34;;;;;;;2.83;1.30;;;13.90;99.90;;;;;;4983807;28;20629;-76
2023/03/24 07:22:38;;;;;;;4.90;1.43;;;13.90;99.90;;;;;;5004085;28;21136;-76
2023/03/24 07:25:24;;;;;;;8.00;1.40;;;13.90;99.90;;;;;;4998390;28;21156;-75
2023/03/24 07:27:56;;;;;;;3.70;1.43;;;13.90;99.90;;;;;;4974467;28;20266;-75
2023/03/24 07:30:24;;;;;;;6.13;1.00;;;13.90;99.90;;;;;;4990360;28;20578;-75
2023/03/24 07:32:53;;;;;;;2.88;1.00;;;13.90;99.90;;;;;;4990432;28;21185;-75
2023/03/24 07:35:21;;;;;;;3.28;0.90;;;13.90;99.90;;;;;;4990196;28;20186;-76
2023/03/24 07:37:49;;;;;;;4.83;1.50;;;13.90;99.90;;;;;;4974477;28;20190;-75
2023/03/24 07:40:18;;;;;;;3.00;0.87;;;13.90;99.90;;;;;;4989960;28;20582;-76
2023/03/24 07:42:46;;;;;;;4.07;1.20;;;14.00;99.90;;;;;;4973720;28;20633;-75
2023/03/24 07:45:34;;;;;;;7.43;1.20;;;14.00;99.90;;;;;;4998828;28;20586;-75
2023/03/24 07:48:01;;;;;;;3.70;1.50;;;14.10;99.90;;;;;;4974297;28;21125;-75
2023/03/24 07:50:30;;;;;;;4.73;1.00;;;14.20;99.90;;;;;;4973319;28;20582;-76
2023/03/24 07:52:57;;;;;;;3.80;1.17;;;14.20;99.90;;;;;;4973935;28;20618;-76
2023/03/24 07:55:23;;;;;;;7.33;1.33;;;14.30;99.90;;;;;;4988531;28;20939;-75
2023/03/24 07:57:56;;;;;;;3.30;1.30;;;14.40;99.90;;;;;;4973688;28;20626;-75
2023/03/24 08:00:25;;;;;;;5.10;1.87;;;14.40;99.90;;;;;;4973516;28;20633;-75
2023/03/24 08:03:14;;;;;;;3.87;1.00;;;14.50;99.90;;;;;;4987620;28;20669;-75
2023/03/24 08:06:01;;;;;;;6.60;1.90;;;14.50;99.90;;;;;;4989098;28;20589;-77
2023/03/24 08:08:36;;;;;;;4.50;1.10;;;14.60;99.90;;;;;;4990726;28;20693;-76
2023/03/24 08:11:03;;;;;;;4.63;1.10;;;14.80;99.90;;;;;;4990592;28;20959;-76
2023/03/24 08:13:29;;;;;;;5.53;1.70;;;15.00;99.90;;;;;;4992304;28;20753;-75
2023/03/24 08:15:54;;;;;;;5.77;1.70;;;15.20;99.90;;;;;;4992679;28;20697;-75
2023/03/24 08:18:23;;;;;;;8.93;1.60;;;15.50;99.90;;;;;;4991772;28;20187;-75
2023/03/24 08:20:50;;;;;;;4.90;1.87;;;15.90;99.90;;;;;;4992619;28;20182;-75
2023/03/24 08:23:16;;;;;;;2.70;1.50;;;16.60;99.90;;;;;;5011749;28;20630;-76
2023/03/24 08:25:42;;;;;;;6.00;1.93;;;17.20;99.90;;;;;;4984203;28;20590;-75
2023/03/24 08:28:08;;;;;;;4.50;1.80;;;17.80;99.90;;;;;;4991113;28;20580;-76
2023/03/24 08:30:34;;;;;;;7.20;1.57;;;18.70;99.90;;;;;;4992341;28;20673;-75
2023/03/24 08:33:02;;;;;;;5.07;1.75;;;19.70;99.90;;;;;;4990317;28;20736;-75
2023/03/24 08:35:33;;;;;;;9.03;1.93;;;20.80;99.90;;;;;;4996730;28;20257;-75
2023/03/24 08:38:00;;;;;;;3.33;1.40;;;21.90;99.90;;;;;;4999810;28;20621;-76
2023/03/24 08:40:53;;;;;;;5.93;1.50;;;23.00;99.90;;;;;;5001917;28;20570;-77
2023/03/24 08:46:53;;;;;;;6.90;1.30;;;24.70;99.90;;;;;;5140697;22;20713;-74
2023/03/24 08:50:22;;;;;;;6.70;1.40;;;24.90;99.90;;;;;;5003353;28;21020;-75
2023/03/24 09:01:32;;;;;;;3.30;1.20;;;25.60;99.90;;;;;;4969810;28;20638;-76
2023/03/24 09:04:58;;;;;;;;;;;;;;;;;;;;;
2023/03/24 09:08:36;;;;;;;3.57;1.40;;;24.90;99.90;;;;;;5013713;28;20588;-76
2023/03/24 09:16:20;;;;;;;6.30;1.40;;;23.50;99.90;;;;;;4980884;28;20626;-76
2023/03/24 09:19:46;;;;;;;;;;;;;;;;;;;;;
2023/03/24 09:22:42;;;;;;;3.93;1.10;;;23.20;99.90;;;;;;4953955;28;20657;-74
2023/03/24 09:25:12;;;;;;;4.63;0.93;;;23.90;99.90;;;;;;4955012;28;20595;-75
2023/03/24 09:27:38;;;;;;;3.50;0.97;;;24.70;99.90;;;;;;5011340;28;20597;-74
2023/03/24 09:30:05;;;;;;;5.07;1.53;;;25.60;99.90;;;;;;5011544;28;20583;-75
2023/03/24 09:32:32;;;;;;;3.77;0.90;;;26.50;99.90;;;;;;5011236;28;20643;-76
2023/03/24 09:34:58;;;;;;;3.00;1.07;;;27.40;99.90;;;;;;5012823;28;20678;-75
2023/03/24 09:37:28;;;;;;;4.20;1.10;;;28.00;99.90;;;;;;5012722;28;20586;-75
2023/03/24 09:39:54;;;;;;;4.23;0.90;;;28.50;99.90;;;;;;5012198;28;20585;-75
2023/03/24 09:42:23;;;;;;;2.37;0.80;;;29.20;99.90;;;;;;5011934;28;20738;-75
2023/03/24 09:44:57;;;;;;;3.63;0.90;;;29.60;97.30;;;;;;5021850;28;20579;-75
2023/03/24 09:47:57;;;;;;;5.27;1.20;;;29.90;95.50;;;;;;5025652;28;20674;-75
2023/03/24 09:50:32;;;;;;;4.10;1.00;;;30.20;95.30;;;;;;4981966;28;20587;-75
2023/03/24 09:53:08;;;;;;;3.23;0.97;;;30.10;91.30;;;;;;5023450;28;20959;-75
2023/03/24 10:06:40;;;;;;;2.83;0.90;;;28.70;86.50;;;;;;4935510;28;20610;-75
2023/03/24 10:09:21;;;;;;;3.97;1.10;;;28.00;83.60;;;;;;4943533;29;20596;-75
2023/03/24 10:25:22;;;;;;;3.60;1.20;;;26.70;85.80;;;;;;4912758;29;20585;-75
2023/03/24 10:28:17;;;;;;;3.80;1.10;;;27.30;89.30;;;;;;4905646;29;21136;-74
2023/03/24 10:30:44;;;;;;;3.77;1.00;;;27.80;83.80;;;;;;4984708;28;20602;-75
2023/03/24 10:33:12;;;;;;;2.50;0.90;;;28.00;85.40;;;;;;4991383;28;20617;-76
2023/03/24 10:35:50;;;;;;;3.80;1.10;;;28.10;81.70;;;;;;4990514;28;20582;-76
2023/03/24 10:38:19;;;;;;;3.90;1.20;;;27.90;78.20;;;;;;4959027;28;20588;-76
2023/03/24 10:40:46;;;;;;;4.37;1.00;;;27.50;74.20;;;;;;4991533;28;20628;-75
2023/03/24 10:43:14;;;;;;;4.47;1.20;;;27.10;72.60;;;;;;4991765;28;20705;-75
2023/03/24 10:45:47;;;;;;;5.20;1.20;;;26.60;73.80;;;;;;4988577;28;20582;-75
2023/03/24 10:48:31;;;;;;;4.03;0.80;;;26.20;72.20;;;;;;4989619;28;20578;-76
2023/03/24 10:50:58;;;;;;;4.07;0.97;;;25.80;73.10;;;;;;4995096;28;20822;-74
2023/03/24 10:53:24;;;;;;;4.50;1.30;;;25.40;74.80;;;;;;5010512;28;20605;-76
2023/03/24 10:55:50;;;;;;;2.83;0.90;;;25.20;75.90;;;;;;4992216;28;20597;-75
2023/03/24 10:58:38;;;;;;;3.63;1.07;;;25.20;77.60;;;;;;5009101;28;21482;-75
2023/03/24 11:01:23;;;;;;;6.13;1.03;;;25.20;75.30;;;;;;5010027;28;20229;-75
2023/03/24 11:03:49;;;;;;;2.40;0.90;;;25.30;76.80;;;;;;5011055;28;20590;-75
2023/03/24 11:06:18;;;;;;;2.63;0.90;;;25.30;77.50;;;;;;5010074;28;20586;-75
2023/03/24 11:08:44;;;;;;;3.10;0.90;;;25.30;78.80;;;;;;5010796;28;20585;-74
2023/03/24 11:11:25;;;;;;;4.23;1.47;;;25.30;76.50;;;;;;5011235;28;20576;-76
2023/03/24 11:14:02;;;;;;;5.63;1.23;;;25.20;73.40;;;;;;5010616;28;20949;-74
2023/03/24 11:16:42;;;;;;;4.17;1.30;;;25.00;73.60;;;;;;5009973;28;20712;-77
2023/03/24 11:19:17;;;;;;;2.73;1.00;;;24.80;74.80;;;;;;5010880;28;20612;-76
2023/03/24 11:21:43;;;;;;;3.00;0.90;;;24.70;74.30;;;;;;5009454;28;20628;-76
2023/03/24 11:24:13;;;;;;;3.97;1.27;;;24.50;75.30;;;;;;5009538;28;20589;-76
2023/03/24 11:26:42;;;;;;;3.50;1.13;;;24.30;75.00;;;;;;5011404;28;20947;-75
2023/03/24 11:29:16;;;;;;;2.33;0.80;;;24.30;75.20;;;;;;5011532;28;21054;-75
2023/03/24 11:31:51;;;;;;;9.90;3.53;;;24.20;72.40;;;;;;5010030;28;20581;-75
2023/03/24 11:34:23;;;;;;;3.23;1.10;;;24.10;72.90;;;;;;5009355;28;20933;-74
2023/03/24 11:37:18;;;;;;;4.80;1.47;;;23.90;73.10;;;;;;5009895;28;21216;-75
2023/03/24 11:40:09;;;;;;;7.00;1.33;;;23.70;71.40;;;;;;5009061;28;20565;-74
2023/03/24 11:43:12;;;;;;;3.20;1.00;;;23.50;72.70;;;;;;4993124;28;21284;-77
2023/03/24 11:45:44;;;;;;;6.40;0.80;;;23.50;73.90;;;;;;4966648;28;20647;-76
2023/03/24 11:48:16;;;;;;;5.93;1.83;;;23.40;73.40;;;;;;4996004;28;20649;-75
2023/03/24 11:50:44;;;;;;;5.10;1.80;;;23.30;72.90;;;;;;4996840;28;20624;-76
2023/03/24 11:53:21;;;;;;;3.73;1.77;;;23.30;75.70;;;;;;5013461;28;20609;-74
2023/03/24 11:55:57;;;;;;;6.00;2.73;;;23.50;76.00;;;;;;5013372;28;20577;-75
2023/03/24 11:58:46;;;;;;;5.37;1.77;;;23.80;76.50;;;;;;5014026;28;20577;-75
2023/03/24 12:01:20;;;;;;;6.27;2.60;;;24.00;74.80;;;;;;5011621;28;20706;-75
2023/03/24 12:04:05;;;;;;;4.43;1.00;;;24.10;74.10;;;;;;5014356;28;21025;-75
2023/03/24 12:06:49;;;;;;;2.93;0.97;;;24.10;74.90;;;;;;5014187;28;20581;-75
2023/03/24 12:09:32;;;;;;;4.03;1.40;;;24.20;74.70;;;;;;5013834;28;21159;-75
2023/03/24 12:12:37;;;;;;;4.60;0.90;;;24.20;74.80;;;;;;5012365;28;20609;-75
2023/03/24 12:15:11;;;;;;;3.47;0.90;;;24.20;73.40;;;;;;5001993;28;20601;-76
2023/03/24 12:17:55;;;;;;;5.03;1.33;;;24.00;72.80;;;;;;5012576;28;20679;-76
2023/03/24 12:20:32;;;;;;;4.70;0.93;;;23.80;72.10;;;;;;5014437;28;20589;-75
2023/03/24 12:23:10;;;;;;;6.47;0.90;;;23.60;69.50;;;;;;5012446;28;20679;-76
2023/03/24 12:25:40;;;;;;;3.77;1.33;;;23.30;69.50;;;;;;5014491;28;20631;-75
2023/03/24 12:28:38;;;;;;;7.83;0.70;;;22.90;68.70;;;;;;5012058;28;20569;-75
2023/03/24 12:31:31;;;;;;;2.67;0.70;;;22.60;68.90;;;;;;4999996;28;20660;-75
2023/03/24 12:34:36;;;;;;;3.10;0.70;;;22.50;69.70;;;;;;5013777;28;20869;-76
2023/03/24 12:37:16;;;;;;;4.05;0.85;;;22.50;71.50;;;;;;5012765;28;20718;-76
2023/03/24 12:40:07;;;;;;;5.57;1.00;;;22.60;72.00;;;;;;5012201;28;20249;-76
2023/03/24 12:43:16;;;;;;;4.60;0.80;;;22.70;71.20;;;;;;5014136;28;20632;-75
2023/03/24 12:45:57;;;;;;;4.50;0.70;;;22.70;68.90;;;;;;5011233;28;20619;-77
2023/03/24 12:49:02;;;;;;;3.53;0.90;;;22.80;71.80;;;;;;5012056;28;20651;-75
2023/03/24 12:52:00;;;;;;;3.50;0.90;;;22.90;69.20;;;;;;4995557;28;20735;-74
2023/03/24 12:55:03;;;;;;;5.80;0.80;;;22.90;66.80;;;;;;5013433;28;20177;-76
2023/03/24 12:57:38;;;;;;;4.30;0.90;;;22.90;66.50;;;;;;5013765;28;20596;-74
2023/03/24 13:00:11;;;;;;;3.13;1.47;;;22.80;67.70;;;;;;4995795;28;20639;-75
2023/03/24 13:03:10;;;;;;;2.53;0.67;;;22.80;68.20;;;;;;4995640;28;20751;-74
2023/03/24 13:05:49;;;;;;;3.22;0.82;;;22.80;69.00;;;;;;5004622;28;20719;-75
2023/03/24 13:08:28;;;;;;;2.20;0.63;;;22.90;67.90;;;;;;5012312;28;20184;-76
2023/03/24 13:11:02;;;;;;;2.50;0.73;;;22.90;69.20;;;;;;5011802;28;21166;-74
2023/03/24 13:13:36;;;;;;;3.60;1.17;;;22.90;68.00;;;;;;5013233;28;20705;-75
2023/03/24 13:16:25;;;;;;;3.40;0.73;;;22.80;67.00;;;;;;4996931;28;20589;-74
2023/03/24 13:18:55;;;;;;;2.23;1.00;;;22.60;65.90;;;;;;5013936;28;20608;-74
2023/03/24 13:21:24;;;;;;;3.00;0.70;;;22.40;65.90;;;;;;5016048;28;20621;-74
2023/03/24 13:24:06;;;;;;;1.97;0.60;;;22.20;66.10;;;;;;5014301;28;20620;-74
2023/03/24 13:26:58;;;;;;;2.20;0.77;;;22.10;65.40;;;;;;4995537;28;20684;-75
2023/03/24 13:30:13;;;;;;;4.73;0.80;;;21.90;65.30;;;;;;5008569;28;20597;-74
2023/03/24 13:33:09;;;;;;;3.67;1.20;;;21.70;65.90;;;;;;5009177;28;20691;-74
2023/03/24 13:36:00;;;;;;;3.07;0.80;;;21.50;64.30;;;;;;5011890;28;20593;-74
2023/03/24 13:38:56;;;;;;;2.37;0.90;;;21.40;66.30;;;;;;5011506;28;20593;-74
2023/03/24 13:41:26;;;;;;;3.83;0.90;;;21.30;66.30;;;;;;5010931;28;20636;-73
2023/03/24 13:44:23;;;;;;;3.70;0.80;;;21.20;65.40;;;;;;5012403;28;20609;-73
2023/03/24 13:47:18;;;;;;;3.60;0.80;;;21.10;64.90;;;;;;5009899;28;20647;-74
2023/03/24 13:49:59;;;;;;;3.90;1.10;;;20.90;66.00;;;;;;4999507;28;20593;-75
2023/03/24 13:52:32;;;;;;;3.10;0.93;;;20.70;66.50;;;;;;5010727;28;20668;-73
2023/03/24 13:55:01;;;;;;;3.60;0.97;;;20.60;67.60;;;;;;4995163;28;20612;-75
2023/03/24 13:57:27;;;;;;;3.63;0.90;;;20.60;68.20;;;;;;4995743;28;20581;-75
2023/03/24 14:00:10;;;;;;;5.20;0.87;;;20.60;68.30;;;;;;5012352;28;20573;-76
2023/03/24 14:02:46;;;;;;;4.83;1.03;;;20.50;66.90;;;;;;5011821;28;20609;-75
2023/03/24 14:05:21;;;;;;;8.20;1.00;;;20.40;66.70;;;;;;5012454;28;20585;-75
2023/03/24 14:08:00;;;;;;;4.27;1.20;;;20.30;67.20;;;;;;4994630;28;20578;-75
2023/03/24 14:10:36;;;;;;;5.87;0.97;;;20.10;68.50;;;;;;5010508;28;20580;-75
2023/03/24 14:13:20;;;;;;;3.20;0.87;;;19.90;69.20;;;;;;5010512;28;20621;-75
2023/03/24 14:15:56;;;;;;;2.43;1.10;;;19.60;69.80;;;;;;5012392;28;20581;-73
2023/03/24 14:18:24;;;;;;;5.10;1.10;;;19.40;70.00;;;;;;5011693;28;20577;-74